createdAt,value
2017-12-27T00:04:10.640Z,100
2017-12-27T00:09:10.614Z,100
2017-12-27T00:14:11.431Z,100
2017-12-27T00:19:10.607Z,100
2017-12-27T00:24:10.704Z,100
2017-12-27T00:29:10.622Z,100
2017-12-27T00:34:10.744Z,100
2017-12-27T00:39:10.681Z,100
2017-12-27T00:44:10.713Z,100
2017-12-27T00:49:10.721Z,100
2017-12-27T00:54:10.614Z,100
2017-12-27T00:59:10.791Z,100
2017-12-27T01:04:10.826Z,100
2017-12-27T01:09:10.771Z,100
2017-12-27T01:14:10.796Z,100
2017-12-27T01:19:10.687Z,100
2017-12-27T01:24:10.730Z,100
2017-12-27T01:29:10.787Z,100
2017-12-27T01:34:10.621Z,100
2017-12-27T01:39:10.644Z,100
2017-12-27T01:44:10.743Z,100
2017-12-27T01:49:10.807Z,100
2017-12-27T01:54:10.739Z,99.5
2017-12-27T01:59:10.731Z,99.6
2017-12-27T02:04:10.788Z,99.2
2017-12-27T02:09:10.733Z,99.1
2017-12-27T02:14:10.845Z,99.1
2017-12-27T02:19:10.650Z,99.6
2017-12-27T02:24:10.806Z,99.1
2017-12-27T02:29:10.696Z,99.9
2017-12-27T02:34:10.669Z,99.2
2017-12-27T02:39:10.662Z,99.8
2017-12-27T02:44:10.665Z,100
2017-12-27T02:49:10.662Z,99.6
2017-12-27T02:54:10.672Z,99.7
2017-12-27T02:59:10.683Z,99.8
2017-12-27T03:04:11.377Z,99.7
2017-12-27T03:09:12.517Z,99.3
2017-12-27T03:14:11.514Z,99.3
2017-12-27T03:19:11.557Z,99.3
2017-12-27T03:24:11.466Z,98.9
2017-12-27T03:29:11.485Z,99.3
2017-12-27T03:34:11.524Z,99
2017-12-27T03:39:11.358Z,98.4
2017-12-27T03:44:11.377Z,98.8
2017-12-27T03:49:11.523Z,98.7
2017-12-27T03:54:11.363Z,98.6
2017-12-27T03:59:11.385Z,98.6
2017-12-27T04:04:11.510Z,98.3
2017-12-27T04:09:11.377Z,98.2
2017-12-27T04:14:11.587Z,98.2
2017-12-27T04:19:11.498Z,98.3
2017-12-27T04:24:11.406Z,98.1
2017-12-27T04:29:11.561Z,98.1
2017-12-27T04:34:11.393Z,98.4
2017-12-27T04:39:11.515Z,98.7
2017-12-27T04:44:11.442Z,98.3
2017-12-27T04:49:11.394Z,98.8
2017-12-27T04:54:11.437Z,99.2
2017-12-27T04:59:11.488Z,99.5
2017-12-27T05:04:11.445Z,99.9
2017-12-27T05:09:11.402Z,99.4
2017-12-27T05:14:11.510Z,99.9
2017-12-27T05:19:11.541Z,99.8
2017-12-27T05:24:11.422Z,99.9
2017-12-27T05:29:11.453Z,99.7
2017-12-27T05:34:11.438Z,100
2017-12-27T05:39:11.441Z,99.7
2017-12-27T05:44:11.444Z,99.9
2017-12-27T05:49:11.517Z,99.5
2017-12-27T05:54:11.560Z,99.5
2017-12-27T05:59:11.602Z,99.3
2017-12-27T06:04:11.483Z,99.2
2017-12-27T06:09:11.588Z,99.3
2017-12-27T06:14:11.457Z,99
2017-12-27T06:19:11.450Z,98.8
2017-12-27T06:24:11.658Z,99.4
2017-12-27T06:29:11.561Z,99.5
2017-12-27T06:34:11.604Z,99.5
2017-12-27T06:39:11.449Z,99.6
2017-12-27T06:44:11.487Z,99.6
2017-12-27T06:49:11.590Z,99.3
2017-12-27T06:54:11.621Z,99.5
2017-12-27T06:59:11.666Z,99.7
2017-12-27T07:04:11.682Z,99.7
2017-12-27T07:09:11.594Z,100
2017-12-27T07:14:11.483Z,100
2017-12-27T07:19:11.678Z,100
2017-12-27T07:24:11.602Z,100
2017-12-27T07:29:11.500Z,100
2017-12-27T07:34:11.567Z,100
2017-12-27T07:39:11.497Z,100
2017-12-27T07:44:11.624Z,100
2017-12-27T07:49:11.494Z,100
2017-12-27T07:54:11.699Z,100
2017-12-27T07:59:11.495Z,100
2017-12-27T08:04:11.637Z,100
2017-12-27T08:09:11.700Z,100
2017-12-27T08:14:11.559Z,100
2017-12-27T08:19:12.496Z,100
2017-12-27T08:24:11.787Z,100
2017-12-27T08:29:11.718Z,99.6
2017-12-27T08:34:11.561Z,99.4
2017-12-27T08:39:11.608Z,99.5
2017-12-27T08:44:11.590Z,99.6
2017-12-27T08:49:11.703Z,98.8
2017-12-27T08:54:11.549Z,98.7
2017-12-27T08:59:12.300Z,98.7
2017-12-27T09:04:11.580Z,98.4
2017-12-27T09:09:12.034Z,98.3
2017-12-27T09:14:11.583Z,97.6
2017-12-27T09:19:11.571Z,97.6
2017-12-27T09:24:11.612Z,97.6
2017-12-27T09:29:11.600Z,97
2017-12-27T09:34:11.594Z,97.3
2017-12-27T09:39:11.602Z,96.7
2017-12-27T09:44:11.575Z,96.7
2017-12-27T09:49:11.588Z,97
2017-12-27T09:54:11.586Z,96.7
2017-12-27T09:59:11.641Z,96.6
2017-12-27T10:04:12.297Z,96.7
2017-12-27T10:09:11.636Z,96.6
2017-12-27T10:14:11.638Z,96.5
2017-12-27T10:19:11.616Z,96.9
2017-12-27T10:24:11.634Z,96.4
2017-12-27T10:29:11.646Z,96.3
2017-12-27T10:34:11.587Z,96.5
2017-12-27T10:39:11.670Z,97.2
2017-12-27T10:44:12.282Z,96.4
2017-12-27T10:49:11.586Z,96.4
2017-12-27T10:54:12.767Z,96.6
2017-12-27T10:59:11.582Z,96.3
2017-12-27T11:04:11.648Z,96.4
2017-12-27T11:09:11.634Z,96.8
2017-12-27T11:14:11.614Z,96.5
2017-12-27T11:19:11.578Z,96.7
2017-12-27T11:24:11.640Z,96.3
2017-12-27T11:29:11.623Z,96.3
2017-12-27T11:34:11.623Z,96.8
2017-12-27T11:39:11.716Z,97.1
2017-12-27T11:44:11.826Z,97.1
2017-12-27T11:49:21.629Z,96.7
2017-12-27T11:54:11.638Z,96.9
2017-12-27T11:59:11.666Z,97
2017-12-27T12:04:11.666Z,96.2
2017-12-27T12:09:11.668Z,96.3
2017-12-27T12:14:11.692Z,96.1
2017-12-27T12:19:11.656Z,95.8
2017-12-27T12:24:11.668Z,95.7
2017-12-27T12:29:11.663Z,96.2
2017-12-27T12:34:11.772Z,95.8
2017-12-27T12:39:11.695Z,95.3
2017-12-27T12:44:11.650Z,95.4
2017-12-27T12:49:11.741Z,95.5
2017-12-27T12:54:11.673Z,95.5
2017-12-27T12:59:11.707Z,95.5
2017-12-27T13:04:11.731Z,95.6
2017-12-27T13:09:11.733Z,96
2017-12-27T13:14:11.704Z,95.6
2017-12-27T13:19:11.722Z,95.3
2017-12-27T13:24:11.751Z,95.8
2017-12-27T13:29:11.732Z,95.7
2017-12-27T13:34:11.685Z,95.6
2017-12-27T13:39:11.707Z,95.5
2017-12-27T13:44:11.773Z,95.9
2017-12-27T13:49:11.723Z,95.7
2017-12-27T13:54:11.716Z,95.9
2017-12-27T13:59:11.716Z,96.4
2017-12-27T14:04:11.718Z,96.9
2017-12-27T14:09:11.887Z,97
2017-12-27T14:14:11.804Z,97.1
2017-12-27T14:19:11.742Z,97.7
2017-12-27T14:24:11.741Z,98.2
2017-12-27T14:29:11.726Z,98.2
2017-12-27T14:34:11.716Z,97.5
2017-12-27T14:39:11.732Z,98.1
2017-12-27T14:44:11.730Z,98.4
2017-12-27T14:49:11.749Z,98.1
2017-12-27T14:54:11.799Z,98.7
2017-12-27T14:59:11.807Z,98.8
2017-12-27T15:04:12.267Z,98
2017-12-27T15:09:11.730Z,98.4
2017-12-27T15:14:12.993Z,98.8
2017-12-27T15:19:11.750Z,98.6
2017-12-27T15:24:11.755Z,98.7
2017-12-27T15:29:11.862Z,98.1
2017-12-27T15:34:11.809Z,98.6
2017-12-27T15:39:11.782Z,98.4
2017-12-27T15:44:11.812Z,98.3
2017-12-27T15:49:11.815Z,99.3
2017-12-27T15:54:11.887Z,99.3
2017-12-27T15:59:11.818Z,99
2017-12-27T16:04:11.831Z,99.1
2017-12-27T16:09:11.833Z,98.6
2017-12-27T16:14:11.797Z,99.1
2017-12-27T16:19:11.841Z,98.4
2017-12-27T16:24:11.867Z,98.9
2017-12-27T16:29:11.858Z,98.8
2017-12-27T16:34:12.200Z,98.7
2017-12-27T16:39:12.019Z,99.2
2017-12-27T16:44:11.862Z,99.3
2017-12-27T16:49:12.200Z,99.3
2017-12-27T16:54:11.883Z,99.4
2017-12-27T16:59:11.834Z,99.1
2017-12-27T17:04:11.842Z,99
2017-12-27T17:09:12.042Z,99.7
2017-12-27T17:14:11.937Z,99
2017-12-27T17:19:11.995Z,99.5
2017-12-27T17:24:11.991Z,99
2017-12-27T17:29:11.930Z,99.2
2017-12-27T17:34:11.850Z,99.4
2017-12-27T17:39:11.993Z,99.4
2017-12-27T17:44:11.843Z,99.9
2017-12-27T17:49:12.073Z,99.8
2017-12-27T17:54:11.857Z,99.7
2017-12-27T17:59:11.858Z,100
2017-12-27T18:04:11.932Z,100
2017-12-27T18:09:11.972Z,100
2017-12-27T18:14:11.878Z,100
2017-12-27T18:19:12.060Z,100
2017-12-27T18:24:11.884Z,100
2017-12-27T18:29:12.041Z,99.6
2017-12-27T18:34:11.894Z,99.1
2017-12-27T18:39:12.087Z,99.2
2017-12-27T18:44:12.046Z,98.5
2017-12-27T18:49:12.045Z,98.6
2017-12-27T18:54:12.092Z,98.6
2017-12-27T18:59:12.123Z,98
2017-12-27T19:04:12.120Z,98
2017-12-27T19:09:12.049Z,97.7
2017-12-27T19:14:11.978Z,97.8
2017-12-27T19:19:12.121Z,97.4
2017-12-27T19:24:12.022Z,97.2
2017-12-27T19:29:12.058Z,96.2
2017-12-27T19:34:12.098Z,96.3
2017-12-27T19:39:12.017Z,95.8
2017-12-27T19:44:12.032Z,95.1
2017-12-27T19:49:12.100Z,93.8
2017-12-27T19:54:12.011Z,92.8
2017-12-27T19:59:12.026Z,93.4
2017-12-27T20:04:12.130Z,93.4
2017-12-27T20:09:12.113Z,93.4
2017-12-27T20:14:12.149Z,93.2
2017-12-27T20:19:12.054Z,93.4
2017-12-27T20:24:12.107Z,89.6
2017-12-27T20:29:12.176Z,86.3
2017-12-27T20:34:12.079Z,86.4
2017-12-27T20:39:12.076Z,87.3
2017-12-27T20:44:12.118Z,87.1
2017-12-27T20:49:12.155Z,88
2017-12-27T20:54:11.972Z,89.1
2017-12-27T20:59:12.105Z,89.5
2017-12-27T21:04:12.055Z,89.9
2017-12-27T21:09:12.136Z,90.3
2017-12-27T21:14:12.132Z,90.4
2017-12-27T21:19:12.108Z,90.1
2017-12-27T21:24:12.122Z,87.4
2017-12-27T21:29:11.981Z,84.8
2017-12-27T21:34:11.978Z,85.4
2017-12-27T21:39:12.006Z,84.8
2017-12-27T21:44:12.187Z,85.4
2017-12-27T21:49:12.161Z,85.5
2017-12-27T21:54:12.143Z,86.4
2017-12-27T21:59:12.173Z,87.5
2017-12-27T22:04:12.093Z,88.6
2017-12-27T22:09:12.008Z,88.5
2017-12-27T22:14:12.185Z,84.6
2017-12-27T22:19:12.079Z,84.5
2017-12-27T22:24:12.102Z,83.2
2017-12-27T22:29:12.030Z,85.1
2017-12-27T22:34:12.037Z,85
2017-12-27T22:39:12.071Z,85.8
2017-12-27T22:44:12.021Z,84.7
2017-12-27T22:49:12.045Z,84.4
2017-12-27T22:54:22.123Z,84.1
2017-12-27T22:59:12.957Z,84.5
2017-12-27T23:04:14.070Z,84.9
2017-12-27T23:09:14.090Z,85
2017-12-27T23:14:12.827Z,84.8
2017-12-27T23:19:12.947Z,85.4
2017-12-27T23:24:12.880Z,85.6
2017-12-27T23:29:12.829Z,85.8
2017-12-27T23:34:13.053Z,85
2017-12-27T23:39:12.977Z,85
2017-12-27T23:44:12.977Z,85.3
2017-12-27T23:49:12.956Z,85.6
2017-12-27T23:54:12.867Z,85.8
2017-12-27T23:59:12.878Z,85.6
